Time;durP1;ratioP1;P1;durP2;ratioP2;P2;SDS_P1;SDS_P2;PMS_P1;PMS_P2;Temp;Humidity;BMP_temperature;BMP_pressure;BME280_temperature;BME280_humidity;BME280_pressure;Samples;Min_cycle;Max_cycle;Signal;HPM_P1;HPM_P2
2021/10/02 00:44:39;;;;;;;16.80;14.90;;;;;;;14.26;65.72;99673.81;5027166;28;20263;-86
2021/10/02 00:47:12;;;;;;;16.87;15.20;;;;;;;14.23;65.51;99685.09;5018879;28;20705;-84
2021/10/02 00:49:40;;;;;;;15.27;13.77;;;;;;;14.27;65.31;99684.38;5002014;28;20249;-85
2021/10/02 00:52:09;;;;;;;17.03;15.33;;;;;;;14.25;65.49;99678.38;5018071;28;20224;-87
2021/10/02 00:54:39;;;;;;;16.03;14.43;;;;;;;14.32;65.42;99675.56;5028341;23;20219;-82
2021/10/02 00:57:07;;;;;;;15.57;13.97;;;;;;;14.23;65.92;99679.72;5054114;28;20232;-84
2021/10/02 00:59:37;;;;;;;16.60;15.00;;;;;;;14.14;66.09;99686.53;5023861;28;20543;-83
2021/10/02 01:02:08;;;;;;;17.00;14.77;;;;;;;14.05;66.40;99673.44;5021578;28;20649;-83
2021/10/02 01:05:21;;;;;;;16.53;14.67;;;;;;;14.16;65.75;99681.72;5041631;28;20219;-82
2021/10/02 01:08:18;;;;;;;16.20;14.50;;;;;;;14.13;65.71;99676.81;5030518;28;20231;-86
2021/10/02 01:11:10;;;;;;;16.87;15.03;;;;;;;14.07;65.84;99673.22;5044675;28;20230;-86
2021/10/02 01:14:02;;;;;;;16.60;14.90;;;;;;;14.08;66.06;99678.38;5045013;28;20234;-80
2021/10/02 01:16:36;;;;;;;16.47;14.67;;;;;;;14.05;66.07;99668.06;5039688;28;20231;-84
2021/10/02 01:19:09;;;;;;;16.50;14.83;;;;;;;14.00;66.14;99673.34;5022587;28;20241;-86
2021/10/02 01:21:52;;;;;;;16.53;14.93;;;;;;;13.92;66.35;99665.66;5039252;28;20247;-81
2021/10/02 01:24:44;;;;;;;16.83;15.03;;;;;;;13.87;66.43;99662.84;5021368;28;20249;-83
2021/10/02 01:27:53;;;;;;;18.10;16.30;;;;;;;13.90;66.54;99658.88;5040227;28;20218;-86
2021/10/02 01:33:45;;;;;;;17.83;15.70;;;;;;;13.74;66.33;99640.78;5046141;28;20667;-85
2021/10/02 01:47:25;;;;;;;15.90;14.30;;;;;;;13.25;69.54;99644.91;5040244;28;20245;-80
2021/10/02 01:49:56;;;;;;;16.43;14.70;;;;;;;13.17;69.78;99646.06;5029548;28;20237;-82
2021/10/02 01:52:32;;;;;;;18.07;15.27;;;;;;;13.16;70.13;99639.03;5052971;28;20309;-79
2021/10/02 01:55:05;;;;;;;16.83;15.03;;;;;;;12.96;70.35;99630.50;5053438;28;20234;-79
2021/10/02 01:57:38;;;;;;;19.50;15.87;;;;;;;12.91;71.26;99628.53;5036876;23;20248;-79
2021/10/02 02:00:13;;;;;;;19.30;15.57;;;;;;;12.88;71.64;99625.50;5002070;23;20227;-79
2021/10/02 02:03:09;;;;;;;17.33;15.40;;;;;;;12.85;71.58;99632.16;5045187;23;20224;-79
2021/10/02 02:05:37;;;;;;;16.50;14.80;;;;;;;12.76;72.19;99631.69;5054487;28;20245;-79
2021/10/02 02:08:18;;;;;;;16.20;14.47;;;;;;;12.68;72.28;99628.53;5047566;23;20286;-78
2021/10/02 02:10:46;;;;;;;17.50;15.70;;;;;;;12.61;72.55;99630.50;5034772;28;20230;-79
2021/10/02 02:13:19;;;;;;;17.90;16.00;;;;;;;12.40;72.94;99617.63;5033144;28;20206;-79
2021/10/02 02:16:12;;;;;;;18.23;16.33;;;;;;;12.47;73.09;99615.63;5034211;28;20522;-79
2021/10/02 02:18:40;;;;;;;17.83;15.93;;;;;;;12.41;73.24;99621.97;5032299;28;20234;-79
2021/10/02 02:21:20;;;;;;;17.77;15.90;;;;;;;12.54;73.57;99629.81;5032479;28;20261;-79
2021/10/02 02:23:48;;;;;;;18.80;16.27;;;;;;;12.40;73.24;99629.19;5019520;23;20207;-79
2021/10/02 02:26:18;;;;;;;17.63;15.77;;;;;;;12.44;73.26;99624.16;4997436;28;20227;-79
2021/10/02 02:28:50;;;;;;;17.40;15.60;;;;;;;12.33;73.24;99613.16;4997320;28;20233;-78
2021/10/02 02:31:20;;;;;;;17.50;15.47;;;;;;;12.43;72.95;99617.97;5013486;28;20247;-78
2021/10/02 02:33:50;;;;;;;17.27;14.87;;;;;;;12.42;73.21;99610.13;5013071;28;20203;-79
2021/10/02 02:36:20;;;;;;;18.40;16.50;;;;;;;12.40;73.39;99609.56;4996166;28;20290;-79
2021/10/02 02:38:47;;;;;;;17.30;14.83;;;;;;;12.33;73.17;99605.13;5013178;28;20207;-79
2021/10/02 02:41:18;;;;;;;17.90;15.80;;;;;;;12.37;73.51;99616.22;5007737;23;20224;-79
2021/10/02 02:43:46;;;;;;;18.47;16.57;;;;;;;12.38;73.64;99623.22;5034137;28;20225;-79
2021/10/02 02:46:36;;;;;;;20.47;16.23;;;;;;;12.36;74.11;99619.97;5040595;23;20241;-79
2021/10/02 02:49:34;;;;;;;16.83;15.03;;;;;;;12.29;73.96;99621.94;5042233;23;20234;-79
2021/10/02 02:52:11;;;;;;;17.33;15.53;;;;;;;12.32;73.65;99611.53;5035942;28;20210;-79
2021/10/02 02:55:09;;;;;;;19.30;16.47;;;;;;;12.36;73.37;99623.44;5047738;28;20220;-79
2021/10/02 02:57:44;;;;;;;16.80;15.07;;;;;;;12.40;73.91;99625.69;5026618;28;20286;-79
2021/10/02 03:00:27;;;;;;;17.87;15.97;;;;;;;12.24;73.52;99611.06;5025325;28;20272;-78
2021/10/02 03:03:03;;;;;;;17.73;15.40;;;;;;;12.32;73.49;99626.81;5045414;23;20218;-79
2021/10/02 03:05:38;;;;;;;18.00;15.40;;;;;;;12.33;74.05;99617.72;5124777;23;20213;-79
2021/10/02 03:08:20;;;;;;;17.87;15.60;;;;;;;12.23;74.08;99620.16;5015212;23;20242;-79
2021/10/02 03:10:52;;;;;;;17.57;15.67;;;;;;;12.18;74.06;99618.16;5015012;28;20217;-80
2021/10/02 03:13:22;;;;;;;18.33;15.13;;;;;;;12.12;74.25;99626.34;5026509;28;20257;-79
2021/10/02 03:16:13;;;;;;;19.10;14.83;;;;;;;12.19;74.54;99627.84;5026419;28;20238;-79
2021/10/02 03:18:46;;;;;;;17.40;14.80;;;;;;;12.00;74.52;99612.03;5028385;28;20191;-79
2021/10/02 03:21:14;;;;;;;16.57;14.80;;;;;;;12.10;74.89;99631.91;5028381;28;20234;-79
2021/10/02 03:23:45;;;;;;;17.17;14.67;;;;;;;12.07;74.56;99626.19;5028477;28;20591;-79
2021/10/02 03:26:17;;;;;;;16.03;14.33;;;;;;;12.01;75.01;99633.28;5028599;28;20233;-79
2021/10/02 03:28:46;;;;;;;17.87;14.13;;;;;;;12.09;74.75;99626.78;5029111;28;20226;-78
2021/10/02 03:31:16;;;;;;;16.77;14.97;;;;;;;12.13;74.95;99631.44;5027691;28;20233;-78
2021/10/02 03:33:58;;;;;;;17.00;14.67;;;;;;;12.05;74.95;99618.34;5026594;28;20289;-79
2021/10/02 03:36:28;;;;;;;16.50;14.43;;;;;;;12.04;75.26;99624.78;5008091;28;20255;-79
2021/10/02 03:38:56;;;;;;;15.80;13.83;;;;;;;11.93;75.92;99625.56;5020457;23;20227;-78
2021/10/02 03:41:25;;;;;;;17.70;14.07;;;;;;;11.91;75.93;99617.72;4994949;28;20257;-79
2021/10/02 03:43:55;;;;;;;18.23;14.10;;;;;;;11.99;76.34;99624.63;5010832;28;20278;-79
2021/10/02 03:46:25;;;;;;;16.77;14.87;;;;;;;11.95;76.04;99618.09;4993867;23;20306;-79
2021/10/02 03:49:04;;;;;;;17.43;14.43;;;;;;;11.90;75.95;99615.28;4996125;23;20222;-78
2021/10/02 03:51:35;;;;;;;16.90;14.97;;;;;;;11.88;76.64;99628.94;5038818;28;20264;-78
2021/10/02 03:54:18;;;;;;;19.07;16.23;;;;;;;11.74;76.46;99619.44;5027477;28;20207;-79
2021/10/02 03:56:45;;;;;;;19.60;15.20;;;;;;;11.64;77.43;99607.56;5038869;28;20224;-79
2021/10/02 03:59:17;;;;;;;19.80;15.73;;;;;;;11.63;77.70;99622.84;5047983;28;20312;-79
2021/10/02 04:01:50;;;;;;;19.07;14.73;;;;;;;11.55;77.84;99625.03;5064106;23;20229;-79
2021/10/02 04:04:22;;;;;;;16.80;14.80;;;;;;;11.47;77.79;99626.16;5046159;28;20241;-79
2021/10/02 04:06:50;;;;;;;16.10;14.00;;;;;;;11.35;77.78;99622.56;5028994;23;20298;-79
2021/10/02 04:09:18;;;;;;;16.37;12.53;;;;;;;11.22;77.84;99630.78;4995425;28;20514;-79
2021/10/02 04:11:46;;;;;;;13.33;11.93;;;;;;;10.91;77.69;99611.13;5020337;23;20295;-78
2021/10/02 04:14:19;;;;;;;14.00;12.27;;;;;;;10.95;77.67;99635.59;5044955;28;20222;-79
2021/10/02 04:16:48;;;;;;;12.33;11.03;;;;;;;10.88;77.57;99638.34;5030862;28;20230;-79
2021/10/02 04:19:15;;;;;;;13.73;11.67;;;;;;;10.66;77.85;99634.44;5047821;28;20218;-79
2021/10/02 04:21:47;;;;;;;12.77;11.37;;;;;;;10.48;78.38;99640.56;5016230;28;20214;-79
2021/10/02 04:24:22;;;;;;;13.10;10.63;;;;;;;10.44;78.22;99655.44;5047307;28;20242;-79
2021/10/02 04:27:11;;;;;;;12.40;11.10;;;;;;;10.39;78.54;99660.63;5047590;28;20225;-79
2021/10/02 04:29:44;;;;;;;13.73;10.73;;;;;;;10.41;78.10;99665.75;5048178;28;20236;-79
2021/10/02 04:32:11;;;;;;;12.27;11.07;;;;;;;10.31;78.25;99660.09;5047561;28;20186;-78
2021/10/02 04:34:39;;;;;;;12.13;10.83;;;;;;;10.21;78.41;99660.56;5048476;28;20230;-79
2021/10/02 04:37:07;;;;;;;11.57;10.10;;;;;;;10.09;78.35;99659.56;5046494;28;20290;-79
2021/10/02 04:39:46;;;;;;;10.57;9.47;;;;;;;9.95;78.48;99653.47;5029698;28;20234;-79
2021/10/02 04:42:13;;;;;;;12.07;10.03;;;;;;;9.96;79.14;99675.69;5003124;28;20214;-79
2021/10/02 04:44:42;;;;;;;10.73;9.63;;;;;;;9.93;78.93;99676.97;5013142;23;20360;-78
2021/10/02 04:47:09;;;;;;;11.23;10.03;;;;;;;9.86;79.33;99669.97;4985705;28;20291;-79
2021/10/02 04:49:36;;;;;;;10.87;9.30;;;;;;;9.71;78.96;99668.41;5001396;23;20591;-79
2021/10/02 04:52:05;;;;;;;10.83;9.70;;;;;;;9.69;79.28;99678.53;4979230;28;20230;-79
2021/10/02 04:54:33;;;;;;;10.63;9.53;;;;;;;9.59;79.23;99669.28;5012342;23;20236;-79
2021/10/02 04:57:13;;;;;;;10.90;8.97;;;;;;;9.60;79.17;99674.44;4995896;28;20235;-79
2021/10/02 04:59:43;;;;;;;9.80;8.80;;;;;;;9.52;79.42;99680.00;5003010;23;20215;31
2021/10/02 05:02:12;;;;;;;11.57;9.43;;;;;;;9.53;79.52;99675.47;4990054;23;20464;-78
2021/10/02 05:04:52;;;;;;;9.53;8.53;;;;;;;9.44;79.43;99674.91;5037817;23;20222;-78
2021/10/02 05:07:35;;;;;;;10.23;8.50;;;;;;;9.45;79.11;99676.56;5027700;23;20240;-80
2021/10/02 05:10:05;;;;;;;10.10;9.10;;;;;;;9.38;79.23;99669.59;5029972;28;20233;-78
2021/10/02 05:12:41;;;;;;;9.37;8.37;;;;;;;9.44;79.65;99685.59;5067897;22;20217;-78
2021/10/02 05:15:13;;;;;;;10.23;8.80;;;;;;;9.40;79.39;99684.38;5036423;28;20244;-78
2021/10/02 05:17:42;;;;;;;11.53;9.20;;;;;;;9.50;79.17;99695.47;5059814;23;20253;-78
2021/10/02 05:20:10;;;;;;;10.73;8.87;;;;;;;9.46;79.14;99686.22;5031107;23;20261;-78
2021/10/02 05:22:40;;;;;;;9.80;8.80;;;;;;;9.48;79.24;99694.84;5121504;23;20223;-79
2021/10/02 05:25:13;;;;;;;12.10;9.07;;;;;;;9.45;79.46;99692.59;5101817;23;20221;-78
2021/10/02 05:27:43;;;;;;;10.97;9.33;;;;;;;9.54;79.48;99703.88;5016468;28;20241;-80
2021/10/02 05:30:14;;;;;;;11.90;9.40;;;;;;;9.53;79.21;99710.25;5033211;28;20240;-79
2021/10/02 05:32:52;;;;;;;10.23;9.23;;;;;;;9.64;79.22;99710.44;5040704;23;20236;-78
2021/10/02 05:35:26;;;;;;;10.20;8.43;;;;;;;9.76;78.97;99709.75;5012597;28;20242;-79
2021/10/02 05:37:54;;;;;;;11.33;9.47;;;;;;;9.83;78.28;99713.25;5057818;23;20287;-78
2021/10/02 05:40:26;;;;;;;9.97;8.30;;;;;;;9.86;78.56;99716.31;5036795;28;20225;-79
2021/10/02 05:43:05;;;;;;;10.80;9.13;;;;;;;9.92;79.07;99723.50;5060218;23;20200;-78
2021/10/02 05:45:34;;;;;;;9.23;8.20;;;;;;;9.98;78.70;99725.31;5047746;23;20256;-79
2021/10/02 05:48:04;;;;;;;11.40;8.57;;;;;;;10.02;78.07;99721.19;5035636;28;20222;-78
2021/10/02 05:50:31;;;;;;;12.13;9.27;;;;;;;10.15;78.29;99728.31;5049188;28;20214;-79
2021/10/02 05:53:00;;;;;;;10.03;8.27;;;;;;;10.23;78.21;99737.97;5047049;28;20246;-79
2021/10/02 05:55:35;;;;;;;9.90;8.03;;;;;;;10.32;77.84;99734.00;5046403;28;20260;-79
2021/10/02 05:58:06;;;;;;;10.77;7.80;;;;;;;10.45;77.61;99741.97;5052957;28;20230;-79
2021/10/02 06:00:36;;;;;;;9.47;7.83;;;;;;;10.58;77.27;99749.94;5040257;23;20306;-78
2021/10/02 06:03:13;;;;;;;9.13;8.20;;;;;;;10.65;76.84;99739.16;5065160;23;20259;-79
2021/10/02 06:05:46;;;;;;;8.83;7.90;;;;;;;10.81;76.30;99743.97;5064037;23;20276;-79
2021/10/02 06:08:25;;;;;;;9.00;7.87;;;;;;;10.82;76.32;99741.09;4993423;28;20234;-79
2021/10/02 06:10:55;;;;;;;10.00;8.00;;;;;;;11.00;75.82;99749.19;4995295;28;20286;-79
2021/10/02 06:13:23;;;;;;;9.27;8.33;;;;;;;11.14;75.73;99752.56;5027060;23;20286;-79
2021/10/02 06:16:10;;;;;;;9.63;8.20;;;;;;;11.22;74.84;99752.28;5058639;28;20251;-79
2021/10/02 06:19:03;;;;;;;9.97;8.13;;;;;;;11.38;74.44;99758.94;5073913;28;20245;-80
2021/10/02 06:21:40;;;;;;;10.23;8.33;;;;;;;11.47;74.11;99747.72;5080160;23;20233;-79
2021/10/02 06:24:13;;;;;;;10.87;8.87;;;;;;;11.66;73.78;99756.59;5144551;22;20225;-78
2021/10/02 06:27:01;;;;;;;10.20;8.67;;;;;;;11.73;73.69;99746.63;5077675;28;20204;-79
2021/10/02 06:29:35;;;;;;;9.53;8.27;;;;;;;11.89;73.28;99746.03;5165602;23;20221;-78
2021/10/02 06:33:05;;;;;;;9.80;8.47;;;;;;;12.13;73.01;99752.31;5057184;28;20245;-78
2021/10/02 06:36:09;;;;;;;10.60;9.37;;;;;;;12.30;72.64;99764.09;5076927;28;20185;-78
2021/10/02 06:39:10;;;;;;;11.33;10.10;;;;;;;12.51;72.43;99762.75;5165964;23;20232;-78
2021/10/02 06:41:59;;;;;;;12.33;10.33;;;;;;;12.66;72.47;99757.78;5076957;28;20233;-78
2021/10/02 06:45:05;;;;;;;12.17;10.00;;;;;;;12.92;72.03;99761.94;5173562;22;20248;-79
2021/10/02 06:48:22;;;;;;;19.73;10.60;;;;;;;12.97;71.80;99737.03;5070138;23;20240;-81
2021/10/02 06:51:18;;;;;;;13.80;10.43;;;;;;;13.24;71.68;99746.31;5033155;28;20237;-82
2021/10/02 06:53:58;;;;;;;11.40;9.60;;;;;;;13.51;71.04;99769.00;5113848;23;20256;-82
2021/10/02 06:57:16;;;;;;;16.90;10.87;;;;;;;13.81;70.40;99766.13;5016566;28;20229;-82
2021/10/02 07:00:23;;;;;;;12.47;11.10;;;;;;;13.95;70.34;99756.75;5075483;28;20221;-83
2021/10/02 07:03:07;;;;;;;13.97;10.50;;;;;;;14.13;69.28;99768.44;5072323;28;20710;-83
2021/10/02 07:05:55;;;;;;;12.70;11.00;;;;;;;14.21;69.22;99762.66;5065305;28;20221;-83
2021/10/02 07:08:46;;;;;;;16.30;14.60;;;;;;;14.52;69.25;99760.31;5059966;28;20221;-87
2021/10/02 07:11:24;;;;;;;17.00;14.73;;;;;;;15.03;67.66;99758.47;5013481;28;20230;-84
2021/10/02 07:13:57;;;;;;;17.23;15.00;;;;;;;15.39;66.38;99758.00;5068760;28;20222;-84
2021/10/02 07:16:23;;;;;;;15.63;14.00;;;;;;;15.73;65.27;99764.16;5023970;28;20240;-87
2021/10/02 07:18:50;;;;;;;16.27;14.23;;;;;;;15.94;64.40;99751.72;5038537;28;20321;-88
2021/10/02 07:21:17;;;;;;;17.43;13.80;;;;;;;16.15;63.24;99759.00;5021626;28;20256;-88
2021/10/02 07:23:44;;;;;;;20.77;18.13;;;;;;;16.38;62.80;99757.13;5021731;28;20642;-88
2021/10/02 07:26:11;;;;;;;18.37;15.43;;;;;;;16.56;62.62;99762.97;5021168;28;20685;-88
2021/10/02 07:28:37;;;;;;;21.87;18.60;;;;;;;16.78;61.80;99759.44;5024524;28;20223;-88
2021/10/02 07:31:05;;;;;;;15.13;13.50;;;;;;;17.04;60.32;99764.78;5038339;28;20232;-88
2021/10/02 07:33:31;;;;;;;15.70;14.10;;;;;;;17.15;60.26;99752.16;5021476;28;20227;-88
2021/10/02 07:35:58;;;;;;;16.10;13.30;;;;;;;17.27;59.74;99750.06;5021501;28;20228;-89
2021/10/02 07:38:25;;;;;;;15.07;13.57;;;;;;;17.42;59.09;99757.50;5037706;28;20240;-90
2021/10/02 07:40:52;;;;;;;15.10;13.50;;;;;;;17.50;58.88;99759.69;5037805;28;20617;-90
2021/10/02 07:43:21;;;;;;;14.67;13.17;;;;;;;17.63;58.12;99753.06;5021540;28;20229;-90
2021/10/02 07:45:48;;;;;;;14.43;12.93;;;;;;;17.71;58.23;99747.94;5020877;28;20597;-88
2021/10/02 07:48:18;;;;;;;14.90;13.40;;;;;;;17.80;58.16;99759.91;5018304;28;20578;-86
2021/10/02 07:50:45;;;;;;;14.70;12.33;;;;;;;17.81;58.17;99753.44;5014928;28;20221;-86
2021/10/02 07:53:12;;;;;;;14.73;13.10;;;;;;;17.93;58.01;99750.47;5001487;28;20245;-88
2021/10/02 07:55:39;;;;;;;14.47;13.07;;;;;;;18.09;57.66;99763.03;5012858;28;20230;-89
2021/10/02 07:58:06;;;;;;;14.50;13.00;;;;;;;18.15;57.07;99751.09;5031282;28;20218;-89
2021/10/02 08:00:33;;;;;;;14.90;13.40;;;;;;;18.33;56.49;99755.25;5016890;28;20230;-91
2021/10/02 08:03:00;;;;;;;15.37;13.70;;;;;;;18.36;57.16;99758.22;5019621;28;20287;-91
2021/10/02 08:05:27;;;;;;;15.63;14.07;;;;;;;18.48;56.27;99764.22;5054330;28;20225;-88
2021/10/02 08:07:54;;;;;;;14.87;13.13;;;;;;;18.56;56.51;99771.06;5020840;28;20233;-90
2021/10/02 08:10:25;;;;;;;14.33;12.93;;;;;;;18.67;55.30;99763.75;5036642;28;20230;-87
2021/10/02 08:12:52;;;;;;;14.23;12.90;;;;;;;18.82;55.27;99758.34;5021299;28;20231;-90
2021/10/02 08:15:21;;;;;;;14.37;12.97;;;;;;;18.74;54.66;99759.69;5020466;28;20618;-91
2021/10/02 08:17:50;;;;;;;14.77;13.27;;;;;;;18.85;54.61;99761.31;5022829;28;20233;-88
2021/10/02 08:20:18;;;;;;;14.37;13.07;;;;;;;18.86;54.63;99754.81;5022661;28;20271;-86
2021/10/02 08:22:51;;;;;;;15.00;13.60;;;;;;;19.02;54.02;99750.22;5038622;28;20225;-87
2021/10/02 08:25:18;;;;;;;15.00;13.50;;;;;;;19.04;53.73;99741.78;5007141;28;20225;-87
2021/10/02 08:27:47;;;;;;;15.30;13.60;;;;;;;19.17;53.34;99749.41;5024701;28;20264;-86
2021/10/02 08:30:15;;;;;;;15.10;13.60;;;;;;;19.15;53.07;99746.94;5040738;28;20305;-90
2021/10/02 08:32:42;;;;;;;15.10;13.50;;;;;;;19.24;53.41;99760.78;5024802;28;20229;-90
2021/10/02 08:35:09;;;;;;;15.27;13.70;;;;;;;19.26;53.39;99745.88;5024679;28;20313;-87
2021/10/02 08:37:37;;;;;;;15.87;14.37;;;;;;;19.35;53.46;99746.94;5008432;28;20237;-89
2021/10/02 08:40:06;;;;;;;15.50;13.90;;;;;;;19.49;53.12;99743.69;5024341;28;20246;-89
2021/10/02 08:42:37;;;;;;;15.00;13.60;;;;;;;19.56;53.67;99731.41;5041278;28;20299;-87
2021/10/02 08:45:05;;;;;;;15.50;13.87;;;;;;;19.64;52.97;99738.22;5040974;28;20233;-84
2021/10/02 08:47:36;;;;;;;15.20;13.70;;;;;;;19.70;52.14;99735.19;5040751;28;20235;-84
2021/10/02 08:50:04;;;;;;;15.10;13.50;;;;;;;19.65;52.66;99732.47;5023781;28;20259;-89
2021/10/02 08:52:31;;;;;;;15.70;14.17;;;;;;;19.64;52.18;99728.13;5024009;28;20271;-80
2021/10/02 08:54:59;;;;;;;15.80;14.33;;;;;;;19.78;52.42;99731.88;5024662;28;20225;-86
2021/10/02 08:57:26;;;;;;;14.33;13.03;;;;;;;19.87;53.17;99745.75;5040250;28;20237;-90
2021/10/02 08:59:56;;;;;;;15.33;13.37;;;;;;;20.01;52.41;99735.09;5058188;28;20258;-84
2021/10/02 09:02:24;;;;;;;15.00;13.50;;;;;;;20.02;51.90;99729.34;5023543;28;20225;-90
2021/10/02 09:04:52;;;;;;;14.80;13.30;;;;;;;20.00;51.85;99719.84;5040037;28;20309;-91
2021/10/02 09:07:20;;;;;;;14.50;12.90;;;;;;;20.06;51.84;99726.91;5005717;28;20222;-85
2021/10/02 09:09:48;;;;;;;16.70;13.60;;;;;;;20.10;50.76;99726.06;4988386;28;20276;-83
2021/10/02 09:12:20;;;;;;;14.07;12.67;;;;;;;20.19;50.99;99724.38;5004330;28;20317;-89
2021/10/02 09:14:49;;;;;;;14.90;13.03;;;;;;;20.31;50.71;99720.53;4989092;28;20228;-86
2021/10/02 09:17:17;;;;;;;14.73;13.40;;;;;;;20.36;50.35;99715.88;5004442;28;20367;-85
2021/10/02 09:19:45;;;;;;;14.67;13.37;;;;;;;20.39;50.27;99722.69;5004335;28;21275;-85
2021/10/02 09:22:13;;;;;;;14.63;13.13;;;;;;;20.43;49.60;99726.47;5019866;28;20233;-85
2021/10/02 09:24:44;;;;;;;15.97;13.20;;;;;;;20.59;49.84;99726.06;5004369;28;20217;-81
2021/10/02 09:27:24;;;;;;;14.60;13.00;;;;;;;20.58;48.68;99716.25;5020407;28;20233;-86
2021/10/02 09:30:04;;;;;;;15.20;13.67;;;;;;;20.72;48.46;99724.59;5019705;28;20241;-87
2021/10/02 09:32:34;;;;;;;13.70;12.40;;;;;;;20.79;48.43;99714.22;5020091;28;20230;-84
2021/10/02 09:35:10;;;;;;;14.17;12.77;;;;;;;20.89;47.97;99711.41;5004112;28;20285;-89
2021/10/02 09:37:39;;;;;;;14.13;12.73;;;;;;;20.87;47.93;99707.34;5020080;28;20313;-84
2021/10/02 09:40:10;;;;;;;14.80;13.33;;;;;;;20.91;46.96;99709.22;4987315;28;20377;-84
2021/10/02 09:42:43;;;;;;;13.43;12.13;;;;;;;20.92;47.08;99701.84;5003910;28;20668;-81
2021/10/02 09:45:15;;;;;;;14.40;12.90;;;;;;;21.09;46.77;99716.66;5019831;28;20245;-81
2021/10/02 09:47:43;;;;;;;13.70;12.37;;;;;;;21.02;47.31;99701.78;5003026;28;20647;-84
2021/10/02 09:50:14;;;;;;;15.30;13.03;;;;;;;21.29;46.91;99707.53;4998259;28;20233;-85
2021/10/02 09:52:43;;;;;;;13.07;11.90;;;;;;;21.36;46.14;99708.00;5020893;28;20274;-85
2021/10/02 09:55:22;;;;;;;14.80;13.40;;;;;;;21.37;46.14;99704.16;5026965;28;20228;-83
2021/10/02 09:57:52;;;;;;;13.30;12.10;;;;;;;21.55;45.70;99701.81;5046444;28;20493;-81
2021/10/02 10:00:21;;;;;;;14.37;12.97;;;;;;;21.61;45.40;99709.63;5023724;28;20229;-80
2021/10/02 10:02:48;;;;;;;13.53;12.10;;;;;;;21.64;45.50;99708.25;5003317;28;20239;-83
2021/10/02 10:05:15;;;;;;;13.40;12.10;;;;;;;21.65;45.74;99702.50;5005027;28;20233;-85
2021/10/02 10:07:57;;;;;;;12.57;11.27;;;;;;;21.85;45.23;99715.09;5022717;28;20243;-88
2021/10/02 10:10:25;;;;;;;13.93;12.20;;;;;;;21.80;44.65;99713.22;5022544;28;20230;-88
2021/10/02 10:12:51;;;;;;;13.33;11.97;;;;;;;21.95;44.86;99712.25;5022615;28;20543;-81
2021/10/02 10:15:39;;;;;;;13.03;11.73;;;;;;;21.90;44.81;99721.28;5039238;28;20232;-85
2021/10/02 10:18:11;;;;;;;13.27;11.97;;;;;;;21.82;44.46;99713.75;5022567;28;20234;-85
2021/10/02 10:20:58;;;;;;;13.00;11.60;;;;;;;21.99;44.95;99710.56;5039437;28;20331;-81
2021/10/02 10:23:33;;;;;;;13.63;12.33;;;;;;;21.92;44.80;99710.91;5022912;28;20322;-87
2021/10/02 10:26:03;;;;;;;12.50;11.30;;;;;;;22.06;44.44;99718.41;5022711;28;20232;-82
2021/10/02 10:28:32;;;;;;;12.83;11.43;;;;;;;22.04;44.40;99707.78;5039046;28;20230;-85
2021/10/02 10:31:28;;;;;;;12.87;11.57;;;;;;;22.16;43.63;99712.81;5039188;28;20247;-87
2021/10/02 10:33:57;;;;;;;13.10;11.90;;;;;;;22.22;43.92;99701.53;5002326;28;20232;-81
2021/10/02 10:36:27;;;;;;;13.03;11.70;;;;;;;22.17;43.61;99700.78;5020869;28;20236;-83
2021/10/02 10:38:54;;;;;;;12.50;11.30;;;;;;;22.25;43.30;99694.69;5022477;28;20305;-84
2021/10/02 10:41:23;;;;;;;13.17;11.73;;;;;;;22.08;43.01;99683.44;5021052;28;20226;-87
2021/10/02 10:43:50;;;;;;;12.80;11.40;;;;;;;22.04;43.17;99679.69;5038420;28;20317;-86
2021/10/02 10:46:21;;;;;;;12.47;11.23;;;;;;;22.19;42.79;99682.22;5036682;28;20239;-87
2021/10/02 10:48:49;;;;;;;12.37;10.80;;;;;;;22.28;42.51;99683.16;5005883;28;20537;-82
2021/10/02 10:51:19;;;;;;;15.37;11.37;;;;;;;22.37;42.59;99684.13;5005846;28;20229;-85
2021/10/02 10:53:48;;;;;;;14.57;11.97;;;;;;;22.20;43.01;99681.09;5009650;28;20245;-86
2021/10/02 10:56:18;;;;;;;12.77;11.40;;;;;;;22.35;42.46;99676.22;5002021;28;20232;-83
2021/10/02 10:58:58;;;;;;;13.63;11.77;;;;;;;22.35;42.28;99675.41;5002640;28;20240;-87
2021/10/02 11:01:37;;;;;;;12.37;11.07;;;;;;;22.62;42.45;99686.47;4985292;28;20275;-84
2021/10/02 11:04:05;;;;;;;13.13;11.37;;;;;;;22.79;43.07;99691.41;5018063;28;20311;-80
2021/10/02 11:06:52;;;;;;;11.73;10.53;;;;;;;22.98;42.02;99683.19;5016944;28;20247;-85
2021/10/02 11:09:38;;;;;;;12.00;10.80;;;;;;;22.97;40.76;99679.63;5001143;28;20225;-83
2021/10/02 11:12:07;;;;;;;11.93;10.63;;;;;;;22.85;41.52;99676.56;5001365;28;20229;-84
2021/10/02 11:14:54;;;;;;;11.87;10.67;;;;;;;22.84;40.85;99669.47;5018165;28;20305;-81
2021/10/02 11:17:30;;;;;;;13.03;10.90;;;;;;;22.76;41.00;99668.25;5035175;28;20648;-83
2021/10/02 11:19:57;;;;;;;12.10;10.90;;;;;;;22.75;40.99;99655.69;5035517;28;20209;-86
2021/10/02 11:25:45;;;;;;;11.80;10.60;;;;;;;23.36;39.52;99662.81;4997239;28;20229;-88
2021/10/02 11:28:25;;;;;;;13.17;9.93;;;;;;;23.17;39.16;99664.81;5001149;28;20347;-82
2021/10/02 11:30:54;;;;;;;12.20;10.93;;;;;;;23.22;39.31;99653.78;5017538;28;20230;-83
2021/10/02 11:33:34;;;;;;;12.50;10.00;;;;;;;23.46;38.54;99664.56;5001610;28;20243;-83
2021/10/02 11:36:33;;;;;;;13.00;10.17;;;;;;;23.46;38.42;99637.22;5017183;28;20318;-80
2021/10/02 11:39:12;;;;;;;11.50;10.03;;;;;;;23.56;38.83;99661.63;5033827;28;20230;-83
2021/10/02 11:41:48;;;;;;;10.60;9.63;;;;;;;23.51;38.21;99645.31;5035148;28;20235;-86
2021/10/02 11:44:35;;;;;;;10.10;9.10;;;;;;;23.50;39.04;99649.97;5001611;28;20230;-85
2021/10/02 11:47:23;;;;;;;11.43;10.33;;;;;;;23.57;38.51;99657.75;5004563;28;20645;-80
2021/10/02 11:50:28;;;;;;;10.50;9.50;;;;;;;23.66;38.72;99656.75;5017509;28;20224;-80
2021/10/02 11:52:55;;;;;;;12.03;9.93;;;;;;;23.74;39.07;99657.16;4969575;28;20311;-83
2021/10/02 11:55:38;;;;;;;12.50;10.53;;;;;;;23.83;38.15;99655.31;5034847;28;20236;-85
2021/10/02 11:58:07;;;;;;;12.30;10.03;;;;;;;23.59;37.95;99650.06;5017004;28;20286;-81
2021/10/02 12:00:40;;;;;;;11.33;10.17;;;;;;;23.62;37.86;99647.53;5034726;28;20627;-80
2021/10/02 12:03:07;;;;;;;10.70;9.60;;;;;;;23.61;37.72;99631.41;5017259;28;20538;-85
2021/10/02 12:05:34;;;;;;;11.57;9.20;;;;;;;23.56;38.13;99631.53;5000968;28;20244;-83
2021/10/02 12:08:01;;;;;;;11.20;10.10;;;;;;;23.77;37.99;99632.72;5017050;28;20233;-85
2021/10/02 12:10:28;;;;;;;10.77;9.67;;;;;;;23.91;37.24;99633.50;5000926;28;20233;-82
2021/10/02 12:13:18;;;;;;;11.13;9.80;;;;;;;24.17;37.77;99643.94;5017257;28;20235;-82
2021/10/02 12:15:45;;;;;;;10.93;9.90;;;;;;;23.92;37.47;99639.81;5017038;28;20222;-84
2021/10/02 12:18:12;;;;;;;10.93;9.70;;;;;;;24.05;38.01;99636.22;5016673;28;20229;-83
2021/10/02 12:20:41;;;;;;;11.07;10.07;;;;;;;24.21;37.17;99648.47;5017352;28;20662;-84
2021/10/02 12:23:10;;;;;;;11.33;10.10;;;;;;;24.22;36.66;99635.56;5016944;28;20233;-81
2021/10/02 12:25:37;;;;;;;11.10;9.75;;;;;;;24.28;36.49;99626.13;5000756;28;20230;-85
2021/10/02 12:28:04;;;;;;;11.35;10.25;;;;;;;24.00;37.86;99639.88;4984109;28;20715;-80
2021/10/02 12:30:31;;;;;;;11.35;10.20;;;;;;;24.13;37.78;99632.75;5017122;28;20307;-81
2021/10/02 12:33:02;;;;;;;11.57;10.47;;;;;;;24.17;37.56;99636.50;5017058;28;20222;-80
2021/10/02 12:35:30;;;;;;;12.70;11.02;;;;;;;24.05;37.24;99626.09;5016721;28;20230;-82
2021/10/02 12:37:56;;;;;;;11.32;10.30;;;;;;;23.78;37.24;99623.41;5000574;28;20626;-84
2021/10/02 12:40:25;;;;;;;11.40;10.17;;;;;;;23.63;37.91;99624.53;5000006;28;20228;-82
2021/10/02 12:42:54;;;;;;;11.37;10.17;;;;;;;23.62;37.68;99622.09;5000825;28;20260;-81
2021/10/02 12:45:23;;;;;;;10.80;9.70;;;;;;;23.68;37.32;99618.16;5000750;28;20799;-85
2021/10/02 12:47:57;;;;;;;11.93;10.53;;;;;;;23.75;37.63;99618.53;5016637;28;20233;-84
2021/10/02 12:50:27;;;;;;;10.87;9.70;;;;;;;23.45;37.57;99624.66;5016460;28;20519;-82
2021/10/02 12:52:56;;;;;;;12.17;9.70;;;;;;;23.54;37.30;99609.16;5016480;28;20226;-84